Aviation Digital Data Service (ADDS)

Output produced by METARs form (1204 UTC 16 July 2019)
found at http://www.aviationweather.gov/metar/data/
 
TAF LETO 161100Z 1612/1712 VRB05KT CAVOK TX37/1616Z TN21/1705Z 
     PROB40 
     TEMPO 1612/1619 20010KT 
     TEMPO 1700/1705 15010KT 
     BECMG 1709/1711 20010KT
       
TAF LEZG 161100Z 1612/1712 31009KT 9999 FEW060 TX33/1615Z TN20/1706Z 
     TEMPO 1616/1620 15004KT 
     PROB40 
     TEMPO 1703/1706 TS SCT080CB 
     BECMG 1707/1710 10009KT
       
TAF LERT 161100Z 1612/1621 23009KT CAVOK
       
TAF LELC 161100Z 1612/1712 09010KT CAVOK TX29/1712Z TN21/1702Z 
     BECMG 1622/1624 35006KT
       
TAF LEAB 161100Z 1612/1621 16012KT CAVOK 
     PROB30 
     TEMPO 1612/1621 16018G28KT
       
TAF LEBZ 161100Z 1612/1712 26009KT CAVOK TX35/1615Z TN17/1705Z
       
TAF LEMO 161100Z 1612/1621 23009KT CAVOK
       
TAF LESA 161100Z 1612/1712 VRB05KT CAVOK TX35/1616Z TN16/1705Z 
     PROB40 
     TEMPO 1615/1620 25010KT
       
TAF GCLP 160800Z 1609/1709 01027KT 9999 SCT020 TX27/1614Z TN20/1705Z 
     TEMPO 1609/1623 01027G39KT
       
TAF LIED 160500Z 1606/1615 33012KT 9999 FEW025 SCT040 
     TEMPO 1606/1611 SCT025 BKN040 
     TEMPO 1612/1615 15012KT
       
TAF LIPR 161100Z 1612/1621 05012KT 9999 SCT040 
     BECMG 1616/1618 VRB05KT